Time;durP1;ratioP1;P1;durP2;ratioP2;P2;SDS_P1;SDS_P2;PMS_P1;PMS_P2;Temp;Humidity;BMP_temperature;BMP_pressure;BME280_temperature;BME280_humidity;BME280_pressure;Samples;Min_cycle;Max_cycle;Signal;HPM_P1;HPM_P2
2024/01/18 00:01:02;;;;;;;;;;;4.70;55.90;;;2.53;60.60;98495.75;12247765;19;20030;-85
2024/01/18 00:05:04;;;;;;;;;;;4.60;55.90;;;2.82;60.43;98556.72;12248490;19;20326;-85
2024/01/18 00:09:05;;;;;;;;;;;4.60;55.80;;;2.81;60.48;98552.50;12246298;19;20296;-85
2024/01/18 00:13:07;;;;;;;;;;;4.60;55.80;;;2.82;60.47;98561.88;12249577;19;19939;-85
2024/01/18 00:17:08;;;;;;;;;;;4.90;56.00;;;2.83;60.42;98568.69;12246851;19;19930;-84
2024/01/18 00:21:09;;;;;;;;;;;4.70;55.90;;;2.71;60.43;98543.66;12247631;19;20247;-85
2024/01/18 00:25:11;;;;;;;;;;;4.80;56.30;;;2.82;60.52;98572.19;12244463;19;19941;-85
2024/01/18 00:29:12;;;;;;;;;;;4.60;55.80;;;2.82;60.50;98589.41;12246208;19;19930;-85
2024/01/18 00:33:14;;;;;;;;;;;4.50;55.80;;;2.82;60.30;98600.53;12246309;19;19944;-85
2024/01/18 00:37:15;;;;;;;;;;;4.50;55.80;;;2.82;60.42;98607.44;12243031;19;19923;-85
2024/01/18 00:41:17;;;;;;;;;;;4.70;55.90;;;2.77;60.60;98602.56;12246648;19;19915;-85
2024/01/18 00:45:18;;;;;;;;;;;4.50;55.80;;;2.80;60.50;98611.84;12244280;19;19911;-85
2024/01/18 00:49:20;;;;;;;;;;;4.70;55.90;;;2.61;60.38;98597.44;12246162;19;20326;-85
2024/01/18 00:53:21;;;;;;;;;;;4.50;55.80;;;2.68;60.47;98607.44;12245510;19;19923;-85
2024/01/18 00:57:23;;;;;;;;;;;4.50;55.80;;;2.74;60.43;98638.81;12243552;19;19970;-85
2024/01/18 01:01:24;;;;;;;;;;;4.50;55.80;;;2.78;60.49;98652.34;12245920;19;19922;-85
2024/01/18 01:05:26;;;;;;;;;;;4.70;55.90;;;2.73;60.49;98649.19;12246379;19;19922;-85
2024/01/18 01:09:28;;;;;;;;;;;4.50;55.80;;;2.68;60.51;98653.81;12245349;19;19911;-85
2024/01/18 01:13:30;;;;;;;;;;;4.60;55.80;;;2.69;60.29;98647.72;12255399;19;19911;-85
2024/01/18 01:17:32;;;;;;;;;;;4.40;55.70;;;2.56;60.52;98639.84;12254178;19;19922;-85
2024/01/18 01:21:33;;;;;;;;;;;4.40;55.70;;;2.69;60.38;98673.50;12258449;19;19907;-85
2024/01/18 01:25:34;;;;;;;;;;;4.40;55.60;;;2.49;60.64;98649.69;12257128;19;19914;-85
2024/01/18 01:29:36;;;;;;;;;;;4.50;55.70;;;2.41;60.42;98637.22;12255537;19;19928;-85
2024/01/18 01:33:37;;;;;;;;;;;4.40;55.70;;;2.56;60.65;98670.75;12257097;19;19911;-85
2024/01/18 01:37:39;;;;;;;;;;;4.30;55.60;;;2.61;60.47;98685.03;12252961;19;19910;-85
2024/01/18 01:41:41;;;;;;;;;;;4.30;55.60;;;2.64;60.54;98695.19;12257257;19;19936;-85
2024/01/18 01:45:43;;;;;;;;;;;4.30;55.60;;;2.51;60.33;98683.91;12256725;19;19922;-85
2024/01/18 01:49:45;;;;;;;;;;;4.30;55.60;;;2.59;60.63;98696.34;12255185;19;19915;-85
2024/01/18 01:53:46;;;;;;;;;;;4.50;55.70;;;2.49;60.32;98695.22;12254467;19;19982;-85
2024/01/18 01:57:48;;;;;;;;;;;4.30;55.60;;;2.49;60.29;98698.63;12251411;19;19925;-85
2024/01/18 02:01:50;;;;;;;;;;;4.20;55.60;;;2.48;60.60;98711.56;12255020;19;19927;-85
2024/01/18 02:05:51;;;;;;;;;;;4.50;55.70;;;2.48;60.44;98717.53;12253283;19;19990;-86
2024/01/18 02:09:53;;;;;;;;;;;4.10;55.50;;;2.43;60.50;98719.53;12253269;19;20298;-85
2024/01/18 02:13:54;;;;;;;;;;;4.20;55.50;;;2.45;60.47;98725.44;12253984;19;19911;-85
2024/01/18 02:17:56;;;;;;;;;;;4.30;55.60;;;2.42;60.31;98735.91;12251581;19;19913;-85
2024/01/18 02:22:01;;;;;;;;;;;4.10;55.50;;;2.27;60.46;98709.25;12253659;19;19919;-85
2024/01/18 02:26:03;;;;;;;;;;;4.10;55.50;;;2.43;60.64;98735.00;12253930;19;19918;-85
2024/01/18 02:30:05;;;;;;;;;;;4.10;55.50;;;2.35;60.32;98719.97;12253279;19;19911;-85
2024/01/18 02:34:16;;;;;;;;;;;4.10;55.50;;;2.19;60.32;98698.53;12253210;19;19915;-85
2024/01/18 02:38:17;;;;;;;;;;;4.20;55.50;;;2.43;60.38;98742.72;12249110;19;20337;-85
2024/01/18 02:42:19;;;;;;;;;;;4.30;55.60;;;2.42;60.60;98748.78;12253496;19;19919;-85
2024/01/18 02:46:21;;;;;;;;;;;4.10;55.50;;;2.15;60.36;98702.19;12248484;19;19918;-85
2024/01/18 02:50:22;;;;;;;;;;;4.20;55.50;;;2.53;60.58;98769.66;12253254;19;19929;-85
2024/01/18 02:54:23;;;;;;;;;;;4.40;55.60;;;2.40;60.39;98753.19;12247794;19;19929;-85
2024/01/18 02:58:25;;;;;;;;;;;4.20;55.50;;;2.26;60.60;98735.09;12247869;19;19911;-85
2024/01/18 03:02:26;;;;;;;;;;;4.20;55.40;;;2.20;60.27;98718.22;12251562;19;20251;-85
2024/01/18 03:06:27;;;;;;;;;;;4.20;55.40;;;2.43;60.43;98756.47;12249766;19;19926;-85
2024/01/18 03:10:29;;;;;;;;;;;4.20;55.40;;;2.26;60.45;98732.50;12250456;19;19915;-86
2024/01/18 03:14:31;;;;;;;;;;;4.20;55.40;;;2.49;60.27;98781.06;12249837;19;19983;-85
2024/01/18 03:18:34;;;;;;;;;;;4.20;55.50;;;2.36;60.35;98755.09;12245143;19;20333;-85
2024/01/18 03:22:40;;;;;;;;;;;4.20;55.40;;;2.50;60.51;98784.44;12250698;19;20532;-85
2024/01/18 03:26:42;;;;;;;;;;;4.20;55.40;;;2.44;60.42;98785.63;12249341;19;19911;-85
2024/01/18 03:30:43;;;;;;;;;;;4.10;55.40;;;2.28;60.37;98774.47;12251302;19;19928;-85
2024/01/18 03:34:45;;;;;;;;;;;4.10;55.30;;;2.34;60.46;98790.41;12247014;19;19911;-85
2024/01/18 03:38:46;;;;;;;;;;;4.20;55.40;;;2.37;60.32;98804.88;12247586;19;19918;-86
2024/01/18 03:42:48;;;;;;;;;;;4.10;55.30;;;2.39;60.23;98827.06;12248511;19;19914;-85
2024/01/18 03:46:49;;;;;;;;;;;4.10;55.30;;;2.41;60.36;98824.41;12246314;19;20031;-85
2024/01/18 03:50:51;;;;;;;;;;;4.10;55.30;;;2.38;60.36;98817.69;12249449;19;19911;-85
2024/01/18 03:54:52;;;;;;;;;;;4.10;55.30;;;2.17;60.21;98793.88;12248312;19;19911;-85
2024/01/18 03:58:54;;;;;;;;;;;4.10;55.30;;;2.40;60.24;98845.91;12243949;19;20326;-85
2024/01/18 04:02:55;;;;;;;;;;;4.30;55.40;;;2.40;60.28;98857.06;12243473;19;19922;-85
2024/01/18 04:06:57;;;;;;;;;;;4.10;55.30;;;2.35;60.48;98863.34;12248413;19;20319;-85
2024/01/18 04:10:59;;;;;;;;;;;4.10;55.30;;;2.21;60.55;98846.88;12249239;19;19930;-86
2024/01/18 04:15:00;;;;;;;;;;;4.30;55.40;;;2.25;60.20;98865.56;12249417;19;20355;-85
2024/01/18 04:19:02;;;;;;;;;;;4.40;55.40;;;2.26;60.35;98874.97;12244166;19;19948;-85
2024/01/18 04:23:03;;;;;;;;;;;4.00;55.20;;;2.20;60.45;98878.69;12249163;19;19936;-85
2024/01/18 04:27:05;;;;;;;;;;;4.00;55.20;;;2.19;60.25;98869.31;12245652;19;19929;-86
2024/01/18 04:31:06;;;;;;;;;;;4.20;55.30;;;2.14;60.26;98867.88;12247146;19;19928;-85
2024/01/18 04:35:08;;;;;;;;;;;4.00;55.20;;;2.30;60.43;98896.25;12245455;19;20242;-84
2024/01/18 04:39:09;;;;;;;;;;;4.00;55.30;;;2.31;60.45;98895.34;12248030;19;19933;-84
2024/01/18 04:43:11;;;;;;;;;;;4.10;55.30;;;2.03;60.22;98857.28;12248637;19;19940;-83
2024/01/18 04:47:12;;;;;;;;;;;4.00;55.60;;;2.24;60.43;98892.22;12241029;19;19952;-84
2024/01/18 04:51:14;;;;;;;;;;;4.20;55.40;;;2.27;60.47;98889.53;12247121;19;19926;-83
2024/01/18 04:55:15;;;;;;;;;;;4.20;55.40;;;2.10;60.31;98871.50;12247931;19;19922;-83
2024/01/18 04:59:17;;;;;;;;;;;4.00;55.30;;;2.25;60.35;98890.50;12245011;19;20532;-84
2024/01/18 05:03:19;;;;;;;;;;;4.00;55.30;;;2.27;60.44;98907.53;12245755;19;20326;-84
2024/01/18 05:07:22;;;;;;;;;;;4.00;55.30;;;2.26;60.44;98897.31;12244860;19;19918;-84
2024/01/18 05:11:25;;;;;;;;;;;4.00;55.30;;;2.29;60.20;98916.00;12247953;19;19907;-84
2024/01/18 05:15:26;;;;;;;;;;;4.00;55.20;;;2.25;60.49;98911.09;12246052;19;19919;-84
2024/01/18 05:19:27;;;;;;;;;;;4.00;55.30;;;2.20;60.47;98895.88;12246719;19;19975;-84
2024/01/18 05:23:29;;;;;;;;;;;4.20;55.40;;;2.16;60.47;98887.50;12245925;19;20263;-86
2024/01/18 05:27:30;;;;;;;;;;;4.00;55.30;;;2.17;60.59;98902.00;12244177;19;19915;-83
2024/01/18 05:31:32;;;;;;;;;;;4.00;55.30;;;2.17;60.29;98901.19;12245323;19;19922;-83
2024/01/18 05:35:33;;;;;;;;;;;4.00;55.30;;;2.29;60.58;98917.75;12237899;19;19919;-83
2024/01/18 05:39:34;;;;;;;;;;;4.00;55.30;;;2.17;60.46;98896.88;12244791;19;19926;-85
2024/01/18 05:43:36;;;;;;;;;;;4.00;55.20;;;2.24;60.42;98912.00;12244878;19;19915;-84
2024/01/18 05:47:37;;;;;;;;;;;4.00;55.20;;;2.24;60.42;98959.16;12240088;19;19934;-83
2024/01/18 05:51:38;;;;;;;;;;;4.00;55.20;;;2.14;60.36;98961.38;12246204;19;19925;-85
2024/01/18 05:55:40;;;;;;;;;;;4.10;55.20;;;2.10;60.52;98953.88;12241987;19;19921;-84
2024/01/18 05:59:41;;;;;;;;;;;3.90;55.20;;;2.18;60.38;98970.63;12255646;19;20028;-84
2024/01/18 06:03:43;;;;;;;;;;;3.90;55.30;;;2.18;60.47;98982.66;12253493;19;19918;-84
2024/01/18 06:07:44;;;;;;;;;;;3.90;55.20;;;2.12;60.32;98980.41;12251188;19;19919;-84
2024/01/18 06:11:47;;;;;;;;;;;3.90;55.20;;;2.06;60.59;99001.28;12255694;19;19919;-84
2024/01/18 06:15:50;;;;;;;;;;;3.90;55.20;;;2.18;60.33;99000.69;12255231;19;19915;-84
2024/01/18 06:19:51;;;;;;;;;;;3.90;55.20;;;2.07;60.40;98998.63;12256154;19;19924;-83
2024/01/18 06:23:52;;;;;;;;;;;3.90;55.20;;;2.18;60.38;99032.41;12255127;19;20231;-84
2024/01/18 06:27:54;;;;;;;;;;;3.90;55.60;;;2.19;60.29;99013.50;12252782;19;19953;-83
2024/01/18 06:31:55;;;;;;;;;;;3.90;55.20;;;1.96;60.44;98985.44;12253891;19;19954;-84
2024/01/18 06:35:57;;;;;;;;;;;3.90;55.20;;;2.16;60.35;99018.81;12254234;19;19923;-86
2024/01/18 06:39:58;;;;;;;;;;;4.00;55.30;;;2.17;60.44;99025.59;12253623;19;19923;-86
2024/01/18 06:44:00;;;;;;;;;;;3.90;55.40;;;2.19;60.29;99028.94;12256303;19;19911;-84
2024/01/18 06:48:01;;;;;;;;;;;3.90;55.30;;;2.20;60.16;99034.94;12253372;19;19974;-84
2024/01/18 06:52:03;;;;;;;;;;;3.90;55.20;;;2.12;60.39;99043.00;12255298;19;19923;-86
2024/01/18 06:56:10;;;;;;;;;;;3.90;55.10;;;2.05;60.43;99040.78;12252560;19;19986;-86
2024/01/18 07:00:12;;;;;;;;;;;3.90;55.20;;;2.16;60.32;99056.56;12254536;19;19923;-84
2024/01/18 07:04:14;;;;;;;;;;;3.90;55.30;;;2.17;60.55;99061.66;12254949;19;20401;-83
2024/01/18 07:08:15;;;;;;;;;;;4.00;55.30;;;1.92;60.48;99022.56;12251250;19;19911;-84
2024/01/18 07:12:17;;;;;;;;;;;3.90;55.30;;;2.13;60.35;99059.28;12253463;19;19922;-85
2024/01/18 07:16:19;;;;;;;;;;;3.90;55.30;;;1.92;60.40;99017.41;12253497;19;19907;-84
2024/01/18 07:20:20;;;;;;;;;;;3.90;55.30;;;2.06;60.46;99040.75;12256417;19;19926;-84
2024/01/18 07:24:22;;;;;;;;;;;3.90;55.30;;;2.12;60.30;99053.31;12252536;19;19923;-86
2024/01/18 07:28:24;;;;;;;;;;;3.90;55.30;;;2.02;60.56;99041.78;12251514;19;19923;-84
2024/01/18 07:32:25;;;;;;;;;;;3.90;55.30;;;1.90;60.49;99022.59;12252206;19;19985;-85
2024/01/18 07:36:28;;;;;;;;;;;3.90;55.30;;;2.19;60.52;99072.72;12250715;19;19978;-85
2024/01/18 07:40:29;;;;;;;;;;;3.90;55.30;;;2.15;60.48;99063.47;12253341;19;19931;-83
2024/01/18 07:44:31;;;;;;;;;;;3.90;55.30;;;2.16;60.65;99070.28;12253224;19;19926;-84
2024/01/18 07:48:32;;;;;;;;;;;3.90;55.30;;;2.15;60.50;99054.91;12247319;19;19922;-84
2024/01/18 07:52:33;;;;;;;;;;;3.90;55.40;;;2.06;60.65;99048.47;12251767;19;19910;-85
2024/01/18 07:56:35;;;;;;;;;;;4.10;55.40;;;2.09;60.58;99052.63;12248660;19;19919;-86
2024/01/18 08:00:36;;;;;;;;;;;4.00;55.40;;;2.09;60.54;99056.03;12253474;19;19947;-83
2024/01/18 08:04:38;;;;;;;;;;;4.10;55.40;;;1.92;60.50;99023.38;12239897;19;19927;-84
2024/01/18 08:08:40;;;;;;;;;;;3.90;55.40;;;2.16;60.57;99072.88;12244818;19;19922;-84
2024/01/18 08:12:44;;;;;;;;;;;3.90;55.30;;;2.20;60.43;99082.09;12249526;19;19919;-86
2024/01/18 08:16:46;;;;;;;;;;;3.90;55.30;;;2.18;60.51;99078.75;12248491;19;20255;-87
2024/01/18 08:20:47;;;;;;;;;;;3.90;55.40;;;2.22;60.45;99090.59;12252964;19;19986;-86
2024/01/18 08:24:49;;;;;;;;;;;3.90;55.40;;;2.23;60.49;99104.31;12248032;19;19986;-86
2024/01/18 08:28:50;;;;;;;;;;;3.90;55.40;;;2.10;60.56;99074.88;12247185;19;19926;-86
2024/01/18 08:32:52;;;;;;;;;;;4.20;55.50;;;2.07;60.51;99080.19;12249687;19;19919;-86
2024/01/18 08:36:53;;;;;;;;;;;4.00;55.40;;;2.15;60.60;99089.22;12236797;19;19919;-85
2024/01/18 08:40:56;;;;;;;;;;;4.30;55.50;;;2.20;60.46;99102.69;12251006;19;19922;-85
2024/01/18 08:44:58;;;;;;;;;;;4.00;55.40;;;2.21;60.45;99095.81;12247343;19;19932;-85
2024/01/18 08:48:59;;;;;;;;;;;4.00;55.40;;;2.27;60.64;99108.41;12245752;19;19923;-86
2024/01/18 08:53:01;;;;;;;;;;;4.00;55.40;;;2.27;60.72;99113.56;12244763;19;19923;-87
2024/01/18 08:57:02;;;;;;;;;;;4.10;55.50;;;2.29;60.54;99116.06;12248542;19;20057;-86
2024/01/18 09:01:04;;;;;;;;;;;4.00;55.50;;;2.33;60.52;99123.56;12246864;19;19948;-86
2024/01/18 09:05:06;;;;;;;;;;;4.10;55.50;;;2.32;60.68;99129.63;12247725;19;19922;-86
2024/01/18 09:09:11;;;;;;;;;;;4.10;55.50;;;2.41;60.60;99147.22;12246255;19;19919;-85
2024/01/18 09:13:12;;;;;;;;;;;4.10;55.50;;;2.30;60.63;99134.03;12248398;19;19926;-86
2024/01/18 09:17:14;;;;;;;;;;;4.10;55.50;;;2.33;60.60;99145.91;12245810;19;19923;-86
2024/01/18 09:21:15;;;;;;;;;;;4.20;55.50;;;2.43;60.50;99163.44;12249005;19;19943;-86
2024/01/18 09:25:16;;;;;;;;;;;4.40;55.60;;;2.42;60.56;99163.50;12249867;19;19915;-86
2024/01/18 09:29:18;;;;;;;;;;;4.20;55.50;;;2.36;60.64;99163.81;12247746;19;19944;-86
2024/01/18 09:33:19;;;;;;;;;;;4.20;55.50;;;2.49;60.39;99185.50;12254177;19;19907;-86
2024/01/18 09:37:21;;;;;;;;;;;4.30;55.60;;;2.45;60.70;99189.13;12256241;19;20333;-86
2024/01/18 09:41:22;;;;;;;;;;;4.30;55.60;;;2.55;60.57;99192.13;12260398;19;19910;-86
2024/01/18 09:45:26;;;;;;;;;;;4.30;55.60;;;2.50;60.61;99171.72;12258283;19;19911;-85
2024/01/18 09:49:30;;;;;;;;;;;4.30;55.60;;;2.53;60.57;99187.03;12258964;19;20309;-87
2024/01/18 09:53:36;;;;;;;;;;;4.40;55.60;;;2.58;60.61;99199.69;12258135;19;19911;-86
2024/01/18 09:57:41;;;;;;;;;;;4.40;55.60;;;2.62;60.69;99196.91;12255874;19;20548;-87
2024/01/18 10:01:42;;;;;;;;;;;4.40;55.60;;;2.63;60.69;99214.03;12258123;19;19944;-85
2024/01/18 10:05:44;;;;;;;;;;;4.50;55.70;;;2.77;60.64;99230.59;12257466;19;20330;-86
2024/01/18 10:09:45;;;;;;;;;;;4.70;55.80;;;2.78;60.71;99227.09;12256638;19;19918;-87
2024/01/18 10:13:54;;;;;;;;;;;4.50;55.70;;;2.85;60.90;99244.78;12260124;19;19922;-87
2024/01/18 10:17:55;;;;;;;;;;;4.60;55.70;;;2.70;60.58;99216.31;12249866;19;20053;-88
2024/01/18 10:21:57;;;;;;;;;;;4.60;55.80;;;2.95;60.80;99246.94;12250826;19;19927;-84
2024/01/18 10:25:58;;;;;;;;;;;4.70;55.70;;;2.76;60.78;99203.97;12257557;19;19940;-86
2024/01/18 10:30:01;;;;;;;;;;;4.90;55.80;;;2.68;60.52;99194.94;12255918;19;19926;-85
2024/01/18 10:34:03;;;;;;;;;;;5.00;55.80;;;3.00;60.69;99244.97;12255641;19;20376;-86
2024/01/18 10:38:06;;;;;;;;;;;4.80;55.70;;;2.84;60.69;99213.94;12256126;19;19927;-86
2024/01/18 10:42:12;;;;;;;;;;;4.80;55.70;;;2.94;60.67;99233.19;12256603;19;20321;-85
2024/01/18 10:46:13;;;;;;;;;;;4.80;55.60;;;2.81;60.60;99214.91;12256148;19;19932;-86
2024/01/18 10:50:16;;;;;;;;;;;4.90;55.70;;;2.95;60.58;99234.88;12254673;19;20334;-86
2024/01/18 10:54:18;;;;;;;;;;;4.90;55.70;;;3.08;60.75;99260.91;12256931;19;19906;-86
2024/01/18 10:58:19;;;;;;;;;;;4.90;55.60;;;3.08;60.77;99269.47;12254332;19;19933;-87
2024/01/18 11:02:21;;;;;;;;;;;5.10;55.70;;;2.96;60.67;99248.59;12256128;19;19915;-86
2024/01/18 11:06:23;;;;;;;;;;;5.20;55.80;;;3.12;60.60;99279.63;12252939;19;19922;-87
2024/01/18 11:10:25;;;;;;;;;;;5.20;55.80;;;3.22;60.79;99298.94;12256483;19;20259;-86
2024/01/18 11:14:27;;;;;;;;;;;5.00;55.70;;;3.27;60.94;99292.63;12257344;19;19907;-86
2024/01/18 11:18:29;;;;;;;;;;;5.00;55.70;;;2.98;60.84;99239.03;12247113;19;19911;-87
2024/01/18 11:22:31;;;;;;;;;;;5.10;55.70;;;3.19;60.74;99271.53;12254480;19;19925;-86
2024/01/18 11:26:32;;;;;;;;;;;5.20;55.80;;;3.06;60.75;99242.09;12249438;19;19948;-85
2024/01/18 11:30:35;;;;;;;;;;;5.10;55.70;;;3.25;60.70;99271.22;12251750;19;19915;-85
2024/01/18 11:34:36;;;;;;;;;;;5.10;55.70;;;3.27;60.74;99273.75;12252233;19;20346;-85
2024/01/18 11:38:45;;;;;;;;;;;5.20;55.70;;;3.31;60.78;99270.09;12248876;19;19932;-89
2024/01/18 11:42:46;;;;;;;;;;;5.20;55.70;;;3.34;60.85;99275.09;12248619;19;19938;-85
2024/01/18 11:46:48;;;;;;;;;;;5.20;55.70;;;3.29;60.71;99274.50;12249256;19;19926;-85
2024/01/18 11:50:51;;;;;;;;;;;5.20;55.70;;;3.41;60.84;99288.56;12250657;19;19915;-85
2024/01/18 11:54:55;;;;;;;;;;;5.20;55.70;;;3.41;60.61;99284.22;12247470;19;20461;-85
2024/01/18 11:58:58;;;;;;;;;;;5.30;55.70;;;3.47;60.69;99298.56;12248201;19;19921;-85
2024/01/18 12:03:03;;;;;;;;;;;5.40;55.70;;;3.47;60.56;99293.41;12251347;19;19927;-85
2024/01/18 12:07:06;;;;;;;;;;;5.30;55.60;;;3.25;60.74;99276.41;12250658;19;19931;-84
2024/01/18 12:11:08;;;;;;;;;;;5.60;55.70;;;3.50;60.78;99303.56;12252291;19;19931;-84
2024/01/18 12:15:09;;;;;;;;;;;5.30;55.60;;;3.58;60.73;99300.63;12252062;19;19954;-85
2024/01/18 12:19:10;;;;;;;;;;;5.40;55.70;;;3.65;60.63;99312.31;12253798;19;19923;-83
2024/01/18 12:23:17;;;;;;;;;;;5.50;55.80;;;3.58;60.86;99293.72;12253741;19;20329;-84
2024/01/18 12:27:19;;;;;;;;;;;5.40;55.70;;;3.59;60.89;99295.38;12250262;19;19919;-84
2024/01/18 12:31:21;;;;;;;;;;;5.40;55.70;;;3.58;60.81;99301.44;12251374;19;19940;-84
2024/01/18 12:35:23;;;;;;;;;;;5.40;55.70;;;3.67;60.74;99307.91;12250625;19;20330;-84
2024/01/18 12:39:24;;;;;;;;;;;5.40;55.60;;;3.66;60.74;99309.66;12250317;19;20549;-84
2024/01/18 12:43:26;;;;;;;;;;;5.40;55.60;;;3.70;60.75;99321.50;12250745;19;19926;-85
2024/01/18 12:47:27;;;;;;;;;;;5.80;55.80;;;3.62;60.59;99304.69;12247185;19;20334;-84
2024/01/18 12:51:29;;;;;;;;;;;5.50;55.60;;;3.64;60.67;99319.22;12244992;19;19936;-85
2024/01/18 12:55:31;;;;;;;;;;;5.40;55.60;;;3.65;60.62;99320.06;12246760;19;19926;-85
2024/01/18 12:59:33;;;;;;;;;;;5.40;55.60;;;3.62;60.52;99327.94;12247819;19;19919;-84
2024/01/18 13:03:34;;;;;;;;;;;5.40;55.50;;;3.64;60.81;99341.59;12249492;19;19922;-85
2024/01/18 13:07:35;;;;;;;;;;;5.40;55.50;;;3.62;60.66;99343.41;12251953;19;19918;-85
2024/01/18 13:11:38;;;;;;;;;;;5.40;55.50;;;3.53;60.68;99355.88;12263121;19;19922;-85
2024/01/18 13:15:39;;;;;;;;;;;5.40;55.50;;;3.52;60.71;99364.53;12262150;19;19907;-85
2024/01/18 13:19:41;;;;;;;;;;;5.40;55.50;;;3.51;60.51;99373.19;12263023;19;20338;-85
2024/01/18 13:23:43;;;;;;;;;;;5.40;55.50;;;3.59;60.61;99385.69;12262505;19;19940;-85
2024/01/18 13:27:44;;;;;;;;;;;5.30;55.40;;;3.58;60.57;99391.78;12259980;19;19922;-85
2024/01/18 13:31:47;;;;;;;;;;;5.30;55.50;;;3.59;60.57;99392.63;12264151;19;19921;-85
2024/01/18 13:35:48;;;;;;;;;;;5.50;55.50;;;3.59;60.51;99398.59;12258474;19;19922;-85
2024/01/18 13:39:50;;;;;;;;;;;5.30;55.50;;;3.61;60.51;99409.69;12261623;19;20571;-85
2024/01/18 13:43:53;;;;;;;;;;;5.30;55.50;;;3.42;60.48;99380.53;12261679;19;20260;-85
2024/01/18 13:47:55;;;;;;;;;;;5.30;55.50;;;3.52;60.39;99408.41;12257894;19;19924;-84
2024/01/18 13:51:56;;;;;;;;;;;5.30;55.50;;;3.47;60.48;99397.44;12259089;19;20341;-85
2024/01/18 13:55:57;;;;;;;;;;;5.30;55.50;;;3.61;60.59;99429.50;12260380;19;20022;-85
2024/01/18 13:59:59;;;;;;;;;;;5.40;55.50;;;3.52;60.54;99426.47;12262192;19;19927;-85
2024/01/18 14:04:01;;;;;;;;;;;5.30;55.50;;;3.64;60.49;99445.69;12260256;19;19974;-84
2024/01/18 14:08:04;;;;;;;;;;;5.30;55.50;;;3.39;60.41;99420.19;12257791;19;19915;-85
2024/01/18 14:12:06;;;;;;;;;;;5.30;55.50;;;3.59;60.36;99462.31;12261691;19;20280;-85
2024/01/18 14:16:09;;;;;;;;;;;5.30;55.50;;;3.59;60.53;99464.88;12259977;19;19930;-85
2024/01/18 14:20:11;;;;;;;;;;;5.30;55.50;;;3.63;60.63;99475.00;12258212;19;19911;-85
2024/01/18 14:24:13;;;;;;;;;;;5.30;55.50;;;3.62;60.37;99482.81;12262157;19;19910;-84
2024/01/18 14:28:14;;;;;;;;;;;5.50;55.50;;;3.58;60.47;99491.63;12257417;19;19919;-85
2024/01/18 14:32:16;;;;;;;;;;;5.30;55.40;;;3.57;60.49;99495.09;12260473;19;20318;-86
2024/01/18 14:36:18;;;;;;;;;;;5.40;55.50;;;3.57;60.56;99495.09;12257944;19;19979;-86
2024/01/18 14:40:20;;;;;;;;;;;5.30;55.40;;;3.50;60.34;99490.22;12259896;19;19919;-86
2024/01/18 14:44:21;;;;;;;;;;;5.30;55.40;;;3.61;60.51;99522.44;12259550;19;19926;-85
2024/01/18 14:48:23;;;;;;;;;;;5.30;55.40;;;3.56;60.28;99522.63;12258354;19;19922;-86
2024/01/18 14:52:24;;;;;;;;;;;5.30;55.40;;;3.54;60.43;99534.81;12260347;19;19923;-86
2024/01/18 14:56:26;;;;;;;;;;;5.30;55.30;;;3.27;60.26;99499.00;12260154;19;19951;-85
2024/01/18 15:00:27;;;;;;;;;;;5.40;55.40;;;3.50;60.50;99552.16;12260183;19;19926;-86
2024/01/18 15:04:29;;;;;;;;;;;5.20;55.30;;;3.43;60.34;99544.75;12257169;19;20313;-86
2024/01/18 15:08:30;;;;;;;;;;;5.20;55.30;;;3.32;60.26;99542.66;12254163;19;19915;-86
2024/01/18 15:12:32;;;;;;;;;;;5.10;55.20;;;3.29;60.36;99563.41;12255838;19;19922;-85
2024/01/18 15:16:33;;;;;;;;;;;5.00;55.10;;;3.29;60.32;99579.75;12254184;19;19926;-86
2024/01/18 15:20:35;;;;;;;;;;;5.00;55.10;;;3.15;60.36;99570.94;12224574;19;19930;-86
2024/01/18 15:24:36;;;;;;;;;;;4.90;55.10;;;3.19;60.40;99596.53;12255577;19;19970;-85
2024/01/18 15:28:38;;;;;;;;;;;4.90;55.10;;;3.05;60.39;99596.28;12253460;19;19941;-86
2024/01/18 15:32:39;;;;;;;;;;;4.80;55.10;;;2.96;60.23;99592.34;12253569;19;20259;-86
2024/01/18 15:36:41;;;;;;;;;;;4.90;55.10;;;3.04;60.54;99616.06;12254204;19;19944;-86
2024/01/18 15:40:44;;;;;;;;;;;4.80;55.10;;;2.97;60.36;99618.97;12256278;19;20389;-86
2024/01/18 15:44:45;;;;;;;;;;;4.70;55.10;;;2.94;60.42;99622.50;12254992;19;19935;-85
2024/01/18 15:48:47;;;;;;;;;;;4.70;55.10;;;2.86;60.32;99629.72;12250373;19;19922;-85
2024/01/18 15:52:48;;;;;;;;;;;4.80;55.20;;;2.85;60.25;99648.69;12253179;19;19915;-85
2024/01/18 15:56:49;;;;;;;;;;;4.60;55.10;;;2.80;60.23;99655.75;12253783;19;20290;-85
2024/01/18 16:00:51;;;;;;;;;;;4.60;55.50;;;2.88;60.25;99674.34;12257900;19;19918;-85
2024/01/18 16:04:52;;;;;;;;;;;4.70;55.10;;;2.84;60.29;99680.53;12256884;19;20598;-85
2024/01/18 16:08:53;;;;;;;;;;;4.50;55.10;;;2.62;60.33;99663.34;12240899;19;19921;-85
2024/01/18 16:12:56;;;;;;;;;;;4.70;55.10;;;2.50;60.36;99660.41;12249911;19;19934;-85
2024/01/18 16:16:57;;;;;;;;;;;4.40;55.00;;;2.56;60.22;99675.63;12252376;19;19918;-85
2024/01/18 16:20:59;;;;;;;;;;;4.40;55.00;;;2.64;60.06;99707.91;12250204;19;19939;-85
2024/01/18 16:25:04;;;;;;;;;;;4.60;55.10;;;2.52;60.18;99700.69;12249853;19;20229;-86
2024/01/18 16:29:06;;;;;;;;;;;4.20;54.90;;;2.54;60.19;99716.91;12248539;19;20373;-85
2024/01/18 16:33:07;;;;;;;;;;;4.20;55.00;;;2.44;60.27;99716.41;12251267;19;19935;-85
2024/01/18 16:37:09;;;;;;;;;;;4.10;55.00;;;2.45;60.05;99737.88;12252341;19;19918;-85
2024/01/18 16:41:10;;;;;;;;;;;4.10;55.00;;;2.10;60.00;99693.66;12254990;19;20698;-85
2024/01/18 16:45:12;;;;;;;;;;;4.00;54.90;;;2.32;60.12;99746.94;12254516;19;19950;-86
2024/01/18 16:49:13;;;;;;;;;;;4.00;55.00;;;2.21;59.97;99737.03;12255164;19;20386;-85
2024/01/18 16:53:15;;;;;;;;;;;4.00;55.00;;;2.28;60.20;99758.28;12254938;19;19970;-85
2024/01/18 16:57:16;;;;;;;;;;;3.90;54.90;;;2.12;59.96;99752.84;12253778;19;19925;-85
2024/01/18 17:01:18;;;;;;;;;;;3.90;55.00;;;2.10;60.32;99758.03;12254453;19;19919;-85
2024/01/18 17:05:20;;;;;;;;;;;3.90;55.00;;;2.12;60.22;99782.00;12254001;19;19915;-85
2024/01/18 17:09:21;;;;;;;;;;;3.80;54.90;;;2.07;60.16;99796.78;12254888;19;19923;-85
2024/01/18 17:13:23;;;;;;;;;;;3.80;54.90;;;1.82;59.95;99762.50;12251770;19;19950;-85
2024/01/18 17:17:24;;;;;;;;;;;3.80;54.90;;;1.99;60.34;99812.50;12249350;19;19926;-85
2024/01/18 17:21:26;;;;;;;;;;;3.70;54.90;;;1.96;60.16;99824.63;12253166;19;19974;-85
2024/01/18 17:25:27;;;;;;;;;;;3.90;55.00;;;1.96;60.19;99842.66;12254840;19;19926;-85
2024/01/18 17:29:29;;;;;;;;;;;3.60;54.90;;;1.86;60.22;99828.41;12255145;19;19923;-84
2024/01/18 17:33:32;;;;;;;;;;;3.60;54.90;;;1.92;59.97;99849.66;12249404;19;19919;-85
2024/01/18 17:37:33;;;;;;;;;;;3.60;54.90;;;1.85;60.02;99857.63;12251448;19;20275;-84
2024/01/18 17:41:35;;;;;;;;;;;3.60;54.90;;;1.75;60.22;99854.50;12254228;19;19927;-85
2024/01/18 17:45:36;;;;;;;;;;;3.50;54.90;;;1.55;60.15;99825.13;12250640;19;19927;-86
2024/01/18 17:49:38;;;;;;;;;;;3.50;54.90;;;1.74;60.29;99861.38;12250132;19;20404;-83
2024/01/18 17:53:40;;;;;;;;;;;3.40;54.80;;;1.67;60.15;99866.78;12254428;19;19933;-84
2024/01/18 17:57:41;;;;;;;;;;;3.40;54.80;;;1.72;60.15;99888.06;12259598;19;20322;-84
2024/01/18 18:01:43;;;;;;;;;;;3.40;54.80;;;1.66;60.00;99894.25;12261750;19;19922;-84
2024/01/18 18:05:46;;;;;;;;;;;3.30;54.80;;;1.36;60.24;99859.22;12264768;19;19927;-84
2024/01/18 18:09:48;;;;;;;;;;;3.50;54.90;;;1.64;60.20;99913.19;12263534;19;20344;-84
2024/01/18 18:13:50;;;;;;;;;;;3.30;54.90;;;1.31;60.19;99875.63;12263869;19;19924;-84
2024/01/18 18:17:51;;;;;;;;;;;3.30;54.90;;;1.50;60.11;99921.34;12260919;19;20546;-84
2024/01/18 18:21:54;;;;;;;;;;;3.30;54.80;;;1.33;60.04;99906.44;12264090;19;19915;-84
2024/01/18 18:25:56;;;;;;;;;;;3.20;54.80;;;1.49;60.32;99946.25;12256786;19;19926;-84
2024/01/18 18:29:57;;;;;;;;;;;3.20;54.80;;;1.45;60.09;99949.78;12261530;19;19930;-84
2024/01/18 18:33:59;;;;;;;;;;;3.20;54.80;;;1.42;60.26;99955.03;12259472;19;19936;-84
2024/01/18 18:38:00;;;;;;;;;;;3.10;54.80;;;1.34;60.28;99972.41;12259660;19;20243;-84
2024/01/18 18:42:02;;;;;;;;;;;3.00;54.70;;;1.35;59.97;100006.69;12261021;19;19923;-84